KGVT/GVT METAR and TAF weather

Enter ICAO airport designator
Station Type Date Time Source
KGVT METAR 2024/07/13 02:35 UTC NOAA

KGVT 130235Z AUTO 17007KT 10SM CLR 28/22 A3007 RMK AO2 TSNO T02790224


Station Type Date Time Source
KGVT Decoded METAR 2024/07/13 02:35 UTC NOAA

Greenville / Majors, TX, United States (KGVT) 33-04N 096-04W
Jul 12, 2024 - 10:35 PM EDT / 2024.07.13 0235 UTC
Wind: from the S (170 degrees) at 8 MPH (7 KT):0
Visibility: 10 mile(s):0
Sky conditions: clear
Temperature: 82.2 F (27.9 C)
Dew Point: 72.3 F (22.4 C)
Relative Humidity: 72%
Pressure (altimeter): 30.07 in. Hg (1018 hPa)
ob: KGVT 130235Z AUTO 17007KT 10SM CLR 28/22 A3007 RMK AO2 TSNO T02790224
cycle: 2

Station Type Date Time Source
KGVT TAF UTC NOAA

Error!

Example: see airport list